createdAt,value
2024-01-15T00:02:25.932Z,3.55
2024-01-15T00:04:54.011Z,4.72
2024-01-15T00:07:21.846Z,5.13
2024-01-15T00:09:50.015Z,5.18
2024-01-15T00:12:17.833Z,2.97
2024-01-15T00:14:45.548Z,3.65
2024-01-15T00:17:14.963Z,3.15
2024-01-15T00:19:42.943Z,3.47
2024-01-15T00:22:11.093Z,3.17
2024-01-15T00:24:37.843Z,3.90
2024-01-15T00:27:06.036Z,4.03
2024-01-15T00:29:33.952Z,3.03
2024-01-15T00:32:01.931Z,2.70
2024-01-15T00:34:31.801Z,4.57
2024-01-15T00:36:59.892Z,5.85
2024-01-15T00:39:28.128Z,3.97
2024-01-15T00:41:55.901Z,4.10
2024-01-15T00:44:23.888Z,4.82
2024-01-15T00:46:51.791Z,2.83
2024-01-15T00:49:20.097Z,6.82
2024-01-15T00:51:49.661Z,4.90
2024-01-15T00:54:17.835Z,4.80
2024-01-15T00:56:45.760Z,3.05
2024-01-15T00:59:16.468Z,2.95
2024-01-15T01:01:47.106Z,3.65
2024-01-15T01:04:15.173Z,0.88
2024-01-15T01:06:43.007Z,8.18
2024-01-15T01:09:12.304Z,4.45
2024-01-15T01:11:39.961Z,5.72
2024-01-15T01:14:07.732Z,6.43
2024-01-15T01:16:40.620Z,5.00
2024-01-15T01:19:09.422Z,6.32
2024-01-15T01:21:37.552Z,4.22
2024-01-15T01:24:05.627Z,3.88
2024-01-15T01:26:35.330Z,6.18
2024-01-15T01:29:03.513Z,6.20
2024-01-15T01:31:31.663Z,7.10
2024-01-15T01:33:59.728Z,7.93
2024-01-15T01:36:28.150Z,10.63
2024-01-15T01:38:56.070Z,5.13
2024-01-15T01:41:25.320Z,3.95
2024-01-15T01:43:54.859Z,6.13
2024-01-15T01:46:22.638Z,4.70
2024-01-15T01:48:50.813Z,6.55
2024-01-15T01:51:18.615Z,5.65
2024-01-15T01:53:47.060Z,10.90
2024-01-15T01:56:14.945Z,8.68
2024-01-15T01:58:42.968Z,6.03
2024-01-15T02:01:12.806Z,6.40
2024-01-15T02:03:42.341Z,7.18
2024-01-15T02:06:10.668Z,7.93
2024-01-15T02:08:38.847Z,7.20
2024-01-15T02:11:07.010Z,7.53
2024-01-15T02:13:35.007Z,5.57
2024-01-15T02:16:02.738Z,4.72
2024-01-15T02:18:41.222Z,3.75
2024-01-15T02:21:09.181Z,4.55
2024-01-15T02:23:38.381Z,7.60
2024-01-15T02:26:06.992Z,5.53
2024-01-15T02:28:34.953Z,5.82
2024-01-15T02:31:02.751Z,2.05
2024-01-15T02:33:30.624Z,4.72
2024-01-15T02:35:58.675Z,7.03
2024-01-15T02:38:26.426Z,4.72
2024-01-15T02:40:55.836Z,6.50
2024-01-15T02:43:23.785Z,4.32
2024-01-15T02:45:51.698Z,5.05
2024-01-15T02:48:19.602Z,3.75
2024-01-15T02:50:47.486Z,9.10
2024-01-15T02:53:15.548Z,10.13
2024-01-15T02:55:43.686Z,6.28
2024-01-15T02:58:13.088Z,4.07
2024-01-15T03:00:41.379Z,5.40
2024-01-15T03:03:09.245Z,4.70
2024-01-15T03:05:40.174Z,2.78
2024-01-15T03:08:08.376Z,3.05
2024-01-15T03:10:36.180Z,2.88
2024-01-15T03:13:04.483Z,5.15
2024-01-15T03:15:34.196Z,3.70
2024-01-15T03:18:02.203Z,5.07
2024-01-15T03:20:30.188Z,5.07
2024-01-15T03:22:58.090Z,5.38
2024-01-15T03:25:25.831Z,3.15
2024-01-15T03:27:53.751Z,4.00
2024-01-15T03:30:21.622Z,6.18
2024-01-15T03:32:51.319Z,9.65
2024-01-15T03:35:19.180Z,12.70
2024-01-15T03:37:47.306Z,8.23
2024-01-15T03:40:16.048Z,9.60
2024-01-15T03:42:44.991Z,3.72
2024-01-15T03:45:13.114Z,4.43
2024-01-15T03:47:41.132Z,5.22
2024-01-15T03:50:11.035Z,4.18
2024-01-15T03:52:39.097Z,6.47
2024-01-15T03:55:07.884Z,5.70
2024-01-15T03:57:35.567Z,8.65
2024-01-15T04:00:04.660Z,8.88
2024-01-15T04:02:32.390Z,10.82
2024-01-15T04:05:00.411Z,7.50
2024-01-15T04:07:29.992Z,10.85
2024-01-15T04:09:57.750Z,7.88
2024-01-15T04:12:25.863Z,4.88
2024-01-15T04:14:53.562Z,6.80
2024-01-15T04:17:22.725Z,7.07
2024-01-15T04:19:50.753Z,7.28
2024-01-15T04:22:19.180Z,5.25
2024-01-15T04:24:48.676Z,6.63
2024-01-15T04:27:16.716Z,4.20
2024-01-15T04:29:45.955Z,5.03
2024-01-15T04:32:13.927Z,3.72
2024-01-15T04:34:41.767Z,3.45
2024-01-15T04:37:09.564Z,3.83
2024-01-15T04:39:37.301Z,4.15
2024-01-15T04:42:06.800Z,3.42
2024-01-15T04:44:34.514Z,5.15
2024-01-15T04:47:02.236Z,5.50
2024-01-15T04:49:30.797Z,3.05
2024-01-15T04:51:58.610Z,0.93
2024-01-15T04:54:26.385Z,2.80
2024-01-15T04:56:54.201Z,3.80
2024-01-15T04:59:23.492Z,7.28
2024-01-15T05:01:51.465Z,4.75
2024-01-15T05:04:19.310Z,6.07
2024-01-15T05:06:47.165Z,4.30
2024-01-15T05:09:15.448Z,7.15
2024-01-15T05:11:43.231Z,6.90
2024-01-15T05:14:11.027Z,3.95
2024-01-15T05:16:41.656Z,6.03
2024-01-15T05:19:10.109Z,8.15
2024-01-15T05:21:38.184Z,6.18
2024-01-15T05:24:06.234Z,5.82
2024-01-15T05:26:34.017Z,7.13
2024-01-15T05:29:02.103Z,6.35
2024-01-15T05:31:30.332Z,10.95
2024-01-15T05:33:59.875Z,5.72
2024-01-15T05:36:27.846Z,8.80
2024-01-15T05:38:55.540Z,4.45
2024-01-15T05:41:23.802Z,8.55
2024-01-15T05:43:51.759Z,5.32
2024-01-15T05:46:19.905Z,6.00
2024-01-15T05:48:48.608Z,3.88
2024-01-15T05:51:18.509Z,6.57
2024-01-15T05:56:14.428Z,6.22
2024-01-15T05:58:42.437Z,5.57
2024-01-15T06:01:10.478Z,7.45
2024-01-15T06:03:42.770Z,8.23
2024-01-15T06:06:11.172Z,4.82
2024-01-15T06:08:40.939Z,7.70
2024-01-15T06:11:09.177Z,6.05
2024-01-15T06:13:36.916Z,5.68
2024-01-15T06:16:06.908Z,9.02
2024-01-15T06:18:35.457Z,6.47
2024-01-15T06:21:03.423Z,5.25
2024-01-15T06:23:31.704Z,8.73
2024-01-15T06:26:01.153Z,5.95
2024-01-15T06:28:29.188Z,7.55
2024-01-15T06:30:57.173Z,4.53
2024-01-15T06:33:25.582Z,6.75
2024-01-15T06:35:53.468Z,6.13
2024-01-15T06:38:21.325Z,7.60
2024-01-15T06:40:52.413Z,5.50
2024-01-15T06:43:23.286Z,9.57
2024-01-15T06:45:51.350Z,8.13
2024-01-15T06:48:19.491Z,9.70
2024-01-15T06:50:47.667Z,6.45
2024-01-15T06:53:15.562Z,7.45
2024-01-15T06:55:43.562Z,5.93
2024-01-15T06:58:11.759Z,5.78
2024-01-15T07:00:41.781Z,5.85
2024-01-15T07:03:09.817Z,10.68
2024-01-15T07:05:38.446Z,6.78
2024-01-15T07:08:06.555Z,10.90
2024-01-15T07:10:37.161Z,7.35
2024-01-15T07:13:05.929Z,8.75
2024-01-15T07:15:33.993Z,7.97
2024-01-15T07:18:03.952Z,4.68
2024-01-15T07:20:31.715Z,6.05
2024-01-15T07:22:59.493Z,6.38
2024-01-15T07:25:28.308Z,3.25
2024-01-15T07:27:56.194Z,4.43
2024-01-15T07:30:24.141Z,5.68
2024-01-15T07:32:54.101Z,5.80
2024-01-15T07:35:23.920Z,6.35
2024-01-15T07:37:51.784Z,3.50
2024-01-15T07:40:19.496Z,7.38
2024-01-15T07:42:47.654Z,6.97
2024-01-15T07:45:15.595Z,4.63
2024-01-15T07:47:43.715Z,3.13
2024-01-15T07:50:11.999Z,3.22
2024-01-15T07:52:41.099Z,7.97
2024-01-15T07:55:08.982Z,2.88
2024-01-15T07:57:37.700Z,4.43
2024-01-15T08:00:06.466Z,5.25
2024-01-15T08:02:37.414Z,7.07
2024-01-15T08:05:05.996Z,7.00
2024-01-15T08:07:34.236Z,2.67
2024-01-15T08:10:03.572Z,4.90
2024-01-15T08:12:31.620Z,3.65
2024-01-15T08:14:59.502Z,4.13
2024-01-15T08:17:29.780Z,6.47
2024-01-15T08:19:58.152Z,2.95
2024-01-15T08:22:26.090Z,2.17
2024-01-15T08:24:55.104Z,4.28
2024-01-15T08:27:24.541Z,1.35
2024-01-15T08:29:52.657Z,4.28
2024-01-15T08:32:20.431Z,4.57
2024-01-15T08:34:50.176Z,4.18
2024-01-15T08:37:17.999Z,5.93
2024-01-15T08:39:45.738Z,2.47
2024-01-15T08:42:13.765Z,5.90
2024-01-15T08:44:44.912Z,2.20
2024-01-15T08:47:12.619Z,0.32
2024-01-15T08:49:42.034Z,1.80
2024-01-15T08:52:10.205Z,1.65
2024-01-15T08:54:38.417Z,2.30
2024-01-15T08:57:06.730Z,2.78
2024-01-15T08:59:34.482Z,1.23
2024-01-15T09:02:03.849Z,3.75
2024-01-15T09:04:31.879Z,2.17
2024-01-15T09:06:59.690Z,2.28
2024-01-15T09:09:28.726Z,2.15
2024-01-15T09:11:56.357Z,3.38
2024-01-15T09:14:33.318Z,2.58
2024-01-15T09:17:06.750Z,2.28
2024-01-15T09:19:34.694Z,2.45
2024-01-15T09:22:02.510Z,2.38
2024-01-15T09:24:30.622Z,2.67
2024-01-15T09:26:58.487Z,2.92
2024-01-15T09:29:26.213Z,2.20
2024-01-15T09:31:54.506Z,4.07
2024-01-15T09:34:24.368Z,1.15
2024-01-15T09:36:52.540Z,4.40
2024-01-15T09:39:20.498Z,3.28
2024-01-15T09:41:49.634Z,3.55
2024-01-15T09:44:18.257Z,1.77
2024-01-15T09:46:46.101Z,3.83
2024-01-15T09:49:14.320Z,2.63
2024-01-15T09:51:44.201Z,2.20
2024-01-15T09:54:14.438Z,0.88
2024-01-15T09:56:42.205Z,1.10
2024-01-15T09:59:10.524Z,2.25
2024-01-15T10:01:39.315Z,1.50
2024-01-15T10:04:07.327Z,4.15
2024-01-15T10:06:36.062Z,3.50
2024-01-15T10:09:05.657Z,2.17
2024-01-15T10:11:34.088Z,4.40
2024-01-15T10:14:01.817Z,4.45
2024-01-15T10:16:29.577Z,2.47
2024-01-15T10:18:57.482Z,1.88
2024-01-15T10:21:27.696Z,3.65
2024-01-15T10:23:55.954Z,1.67
2024-01-15T10:26:28.497Z,2.45
2024-01-15T10:28:56.602Z,1.33
2024-01-15T10:31:27.176Z,1.70
2024-01-15T10:33:59.092Z,2.15
2024-01-15T10:36:28.340Z,1.17
2024-01-15T10:39:01.161Z,1.25
2024-01-15T10:41:30.310Z,1.50
2024-01-15T10:43:58.376Z,1.05
2024-01-15T10:46:26.893Z,1.95
2024-01-15T10:48:55.103Z,1.58
2024-01-15T10:51:22.918Z,1.70
2024-01-15T10:53:51.802Z,0.47
2024-01-15T10:56:20.212Z,0.32
2024-01-15T10:58:49.421Z,1.50
2024-01-15T11:01:18.130Z,0.95
2024-01-15T11:03:46.264Z,2.00
2024-01-15T11:06:21.479Z,0.63
2024-01-15T11:08:50.769Z,0.55
2024-01-15T11:11:18.989Z,1.05
2024-01-15T11:13:52.948Z,1.25
2024-01-15T11:16:20.877Z,1.38
2024-01-15T11:19:04.634Z,1.30
2024-01-15T11:21:32.691Z,1.13
2024-01-15T11:24:01.235Z,1.83
2024-01-15T11:26:28.874Z,1.73
2024-01-15T11:28:58.416Z,0.85
2024-01-15T11:31:28.849Z,0.98
2024-01-15T11:33:57.994Z,1.77
2024-01-15T11:36:40.767Z,0.10
2024-01-15T11:39:32.821Z,1.20
2024-01-15T11:42:01.579Z,0.90
2024-01-15T11:44:31.421Z,1.02
2024-01-15T11:47:00.013Z,0.88
2024-01-15T11:49:36.496Z,1.10
2024-01-15T11:52:04.482Z,0.82
2024-01-15T11:54:35.229Z,1.40
2024-01-15T11:57:05.523Z,0.80
2024-01-15T11:59:34.709Z,0.40
2024-01-15T12:02:04.178Z,2.08
2024-01-15T12:04:32.045Z,1.17
2024-01-15T12:06:59.985Z,0.82
2024-01-15T12:09:29.110Z,0.40
2024-01-15T12:12:01.775Z,0.63
2024-01-15T12:14:30.481Z,1.52
2024-01-15T12:17:01.322Z,0.70
2024-01-15T12:19:30.242Z,1.02
2024-01-15T12:21:58.131Z,0.90
2024-01-15T12:24:25.813Z,1.05
2024-01-15T12:26:53.653Z,1.00
2024-01-15T12:29:22.020Z,0.73
2024-01-15T12:31:50.573Z,1.33
2024-01-15T12:34:21.312Z,0.40
2024-01-15T12:36:49.263Z,1.42
2024-01-15T12:39:17.173Z,0.50
2024-01-15T12:41:45.152Z,0.70
2024-01-15T12:44:13.041Z,1.05
2024-01-15T12:46:41.195Z,0.63
2024-01-15T12:49:10.018Z,0.35
2024-01-15T12:51:39.978Z,0.70
2024-01-15T12:54:07.918Z,0.57
2024-01-15T12:56:35.796Z,0.50
2024-01-15T12:59:03.490Z,0.77
2024-01-15T13:01:31.326Z,0.40
2024-01-15T13:04:00.870Z,0.68
2024-01-15T13:06:28.861Z,0.50
2024-01-15T13:08:58.613Z,0.05
2024-01-15T13:11:27.218Z,0.80
2024-01-15T13:13:55.013Z,2.33
2024-01-15T13:16:24.900Z,3.63
2024-01-15T13:18:54.277Z,5.35
2024-01-15T13:21:22.191Z,4.10
2024-01-15T13:23:49.881Z,2.75
2024-01-15T13:26:20.370Z,3.10
2024-01-15T13:28:48.130Z,4.53
2024-01-15T13:31:16.122Z,5.35
2024-01-15T13:33:44.898Z,3.30
2024-01-15T13:36:13.109Z,4.25
2024-01-15T13:38:41.393Z,6.80
2024-01-15T13:41:09.380Z,6.57
2024-01-15T13:43:39.044Z,3.55
2024-01-15T13:46:07.232Z,3.90
2024-01-15T13:48:35.038Z,7.72
2024-01-15T13:51:03.225Z,7.75
2024-01-15T13:53:31.038Z,4.70
2024-01-15T13:55:59.044Z,2.42
2024-01-15T13:58:27.164Z,6.65
2024-01-15T14:00:56.564Z,4.00
2024-01-15T14:03:24.696Z,7.53
2024-01-15T14:05:52.725Z,8.35
2024-01-15T14:08:20.904Z,8.55
2024-01-15T14:10:48.905Z,9.43
2024-01-15T14:13:16.565Z,4.75
2024-01-15T14:15:44.809Z,8.18
2024-01-15T14:18:14.180Z,7.03
2024-01-15T14:20:42.618Z,6.80
2024-01-15T14:23:10.376Z,7.10
2024-01-15T14:25:38.274Z,6.13
2024-01-15T14:28:06.257Z,1.77
2024-01-15T14:30:34.154Z,8.15
2024-01-15T14:33:02.476Z,4.28
2024-01-15T14:35:31.608Z,3.60
2024-01-15T14:37:59.927Z,8.45
2024-01-15T14:40:28.209Z,3.72
2024-01-15T14:42:56.378Z,6.40
2024-01-15T14:45:24.230Z,5.53
2024-01-15T14:47:52.171Z,8.95
2024-01-15T14:50:20.847Z,6.40
2024-01-15T14:52:50.486Z,6.53
2024-01-15T14:55:18.113Z,6.18
2024-01-15T14:57:46.261Z,5.75
2024-01-15T15:00:14.720Z,1.85
2024-01-15T15:02:42.942Z,3.67
2024-01-15T15:05:14.818Z,2.22
2024-01-15T15:07:42.930Z,3.90
2024-01-15T15:10:13.290Z,5.95
2024-01-15T15:12:41.528Z,6.63
2024-01-15T15:15:14.634Z,5.00
2024-01-15T15:17:45.448Z,6.70
2024-01-15T15:20:14.227Z,5.43
2024-01-15T15:22:41.989Z,4.00
2024-01-15T15:25:10.795Z,5.10
2024-01-15T15:27:41.117Z,3.90
2024-01-15T15:30:09.700Z,4.50
2024-01-15T15:32:38.058Z,3.80
2024-01-15T15:35:06.427Z,5.22
2024-01-15T15:37:34.287Z,4.55
2024-01-15T15:40:03.610Z,4.18
2024-01-15T15:42:31.305Z,4.55
2024-01-15T15:45:02.686Z,5.18
2024-01-15T15:47:31.544Z,3.92
2024-01-15T15:49:59.555Z,2.53
2024-01-15T15:52:27.752Z,4.30
2024-01-15T15:54:55.626Z,4.53
2024-01-15T15:57:23.832Z,3.95
2024-01-15T15:59:51.898Z,4.15
2024-01-15T16:02:21.310Z,4.50
2024-01-15T16:04:49.368Z,7.82
2024-01-15T16:07:17.341Z,3.40
2024-01-15T16:09:45.804Z,4.25
2024-01-15T16:12:15.280Z,3.40
2024-01-15T16:14:43.206Z,2.75
2024-01-15T16:23:14.645Z,4.15
2024-01-15T16:23:28.313Z,3.00
2024-01-15T16:23:44.012Z,3.40
2024-01-15T16:25:39.685Z,3.97
2024-01-15T16:28:08.505Z,1.60
2024-01-15T16:30:43.148Z,3.05
2024-01-15T16:33:14.096Z,2.92
2024-01-15T16:35:43.819Z,4.15
2024-01-15T16:38:13.117Z,4.43
2024-01-15T16:40:41.764Z,2.55
2024-01-15T16:43:10.132Z,4.05
2024-01-15T16:45:38.208Z,2.85
2024-01-15T16:48:06.437Z,3.72
2024-01-15T16:50:34.861Z,3.97
2024-01-15T16:53:04.128Z,3.47
2024-01-15T16:55:31.947Z,3.97
2024-01-15T16:58:00.058Z,3.45
2024-01-15T17:00:27.817Z,2.80
2024-01-15T17:02:56.040Z,4.32
2024-01-15T17:05:24.470Z,3.75
2024-01-15T17:07:52.545Z,4.57
2024-01-15T17:10:22.075Z,4.70
2024-01-15T17:12:50.092Z,2.25
2024-01-15T17:15:18.062Z,3.40
2024-01-15T17:17:46.179Z,4.55
2024-01-15T17:20:14.239Z,6.43
2024-01-15T17:22:41.988Z,3.90
2024-01-15T17:25:09.893Z,4.90
2024-01-15T17:27:39.301Z,4.03
2024-01-15T17:30:08.686Z,4.80
2024-01-15T17:32:36.500Z,2.72
2024-01-15T17:35:05.427Z,3.63
2024-01-15T17:37:33.430Z,2.90
2024-01-15T17:40:04.279Z,4.18
2024-01-15T17:42:33.870Z,5.60
2024-01-15T17:45:03.229Z,4.97
2024-01-15T17:47:31.312Z,5.50
2024-01-15T17:49:59.167Z,5.97
2024-01-15T17:52:26.916Z,5.65
2024-01-15T17:54:54.911Z,6.90
2024-01-15T17:57:22.663Z,5.10
2024-01-15T17:59:50.359Z,4.38
2024-01-15T18:02:19.655Z,5.32
2024-01-15T18:04:47.645Z,4.75
2024-01-15T18:07:15.927Z,3.75
2024-01-15T18:09:43.813Z,3.53
2024-01-15T18:12:11.691Z,3.47
2024-01-15T18:14:39.982Z,3.08
2024-01-15T18:17:07.760Z,5.03
2024-01-15T18:19:37.009Z,4.82
2024-01-15T18:22:05.871Z,4.28
2024-01-15T18:24:33.592Z,4.30
2024-01-15T18:27:04.266Z,4.03
2024-01-15T18:29:32.678Z,3.45
2024-01-15T18:32:00.542Z,5.13
2024-01-15T18:34:28.375Z,5.93
2024-01-15T18:36:57.760Z,4.85
2024-01-15T18:39:25.480Z,3.15
2024-01-15T18:41:53.313Z,4.18
2024-01-15T18:44:21.193Z,3.63
2024-01-15T18:46:49.356Z,5.10
2024-01-15T18:49:17.731Z,5.15
2024-01-15T18:51:45.537Z,4.18
2024-01-15T18:54:15.975Z,4.07
2024-01-15T18:56:43.950Z,5.18
2024-01-15T18:59:12.799Z,4.45
2024-01-15T19:01:40.910Z,3.67
2024-01-15T19:04:11.431Z,5.72
2024-01-15T19:06:41.544Z,5.20
2024-01-15T19:09:11.137Z,3.28
2024-01-15T19:11:41.386Z,1.90
2024-01-15T19:14:09.197Z,5.07
2024-01-15T19:16:37.323Z,2.50
2024-01-15T19:19:05.199Z,3.28
2024-01-15T19:21:34.144Z,2.33
2024-01-15T19:24:03.520Z,4.88
2024-01-15T19:26:31.508Z,2.22
2024-01-15T19:29:00.703Z,5.00
2024-01-15T19:31:30.514Z,4.03
2024-01-15T19:33:58.548Z,5.75
2024-01-15T19:36:27.914Z,6.35
2024-01-15T19:38:55.849Z,3.75
2024-01-15T19:41:23.924Z,5.18
2024-01-15T19:43:51.901Z,5.25
2024-01-15T19:46:21.000Z,4.38
2024-01-15T19:48:49.019Z,4.63
2024-01-15T19:51:17.075Z,2.88
2024-01-15T19:53:45.074Z,2.70
2024-01-15T19:56:14.088Z,5.07
2024-01-15T19:58:41.884Z,2.58
2024-01-15T20:01:10.198Z,3.90
2024-01-15T20:03:39.405Z,2.90
2024-01-15T20:06:12.681Z,4.22
2024-01-15T20:08:43.747Z,4.47
2024-01-15T20:11:12.041Z,2.55
2024-01-15T20:13:41.145Z,1.33
2024-01-15T20:16:09.797Z,3.60
2024-01-15T20:18:39.666Z,3.05
2024-01-15T20:21:08.396Z,2.80
2024-01-15T20:23:46.447Z,1.60
2024-01-15T20:26:23.607Z,0.85
2024-01-15T20:28:51.462Z,0.50
2024-01-15T20:31:19.505Z,2.03
2024-01-15T20:33:48.805Z,1.88
2024-01-15T20:36:16.811Z,1.30
2024-01-15T20:38:44.918Z,1.58
2024-01-15T20:41:12.752Z,0.85
2024-01-15T20:43:41.057Z,0.73
2024-01-15T20:46:11.205Z,0.82
2024-01-15T20:48:40.043Z,1.85
2024-01-15T20:51:11.003Z,1.05
2024-01-15T20:53:39.468Z,1.27
2024-01-15T20:56:07.794Z,1.60
2024-01-15T20:58:35.760Z,1.60
2024-01-15T21:01:05.901Z,1.77
2024-01-15T21:03:34.020Z,0.88
2024-01-15T21:06:02.089Z,1.50
2024-01-15T21:08:32.180Z,2.00
2024-01-15T21:11:01.127Z,1.35
2024-01-15T21:13:28.949Z,1.88
2024-01-15T21:15:56.934Z,2.00
2024-01-15T21:18:25.302Z,2.20
2024-01-15T21:20:53.514Z,2.05
2024-01-15T21:23:21.640Z,2.75
2024-01-15T21:25:50.946Z,3.28
2024-01-15T21:28:19.122Z,1.90
2024-01-15T21:30:48.005Z,1.35
2024-01-15T21:33:16.373Z,2.05
2024-01-15T21:35:44.211Z,2.55
2024-01-15T21:38:12.017Z,1.35
2024-01-15T21:40:39.863Z,1.45
2024-01-15T21:43:09.317Z,2.08
2024-01-15T21:45:37.164Z,2.65
2024-01-15T21:48:05.194Z,1.70
2024-01-15T21:50:35.661Z,2.45
2024-01-15T21:53:03.402Z,1.45
2024-01-15T21:55:31.111Z,1.98
2024-01-15T21:57:58.798Z,2.00
2024-01-15T22:00:28.457Z,1.65
2024-01-15T22:02:56.271Z,1.67
2024-01-15T22:05:24.089Z,1.90
2024-01-15T22:07:51.896Z,2.22
2024-01-15T22:10:19.671Z,1.77
2024-01-15T22:12:47.408Z,2.25
2024-01-15T22:15:15.252Z,1.98
2024-01-15T22:17:44.586Z,2.10
2024-01-15T22:20:13.420Z,1.90
2024-01-15T22:22:41.287Z,2.10
2024-01-15T22:25:09.442Z,2.28
2024-01-15T22:27:37.208Z,2.40
2024-01-15T22:30:06.018Z,1.90
2024-01-15T22:32:34.088Z,1.83
2024-01-15T22:35:03.310Z,1.80
2024-01-15T22:37:31.058Z,2.25
2024-01-15T22:39:59.485Z,2.22
2024-01-15T22:42:27.569Z,1.80
2024-01-15T22:44:55.302Z,2.28
2024-01-15T22:47:23.204Z,1.38
2024-01-15T22:49:50.979Z,1.70
2024-01-15T22:52:20.113Z,1.50
2024-01-15T22:54:49.845Z,1.63
2024-01-15T22:57:17.507Z,1.77
2024-01-15T22:59:45.630Z,1.58
2024-01-15T23:02:13.524Z,3.25
2024-01-15T23:04:41.577Z,1.90
2024-01-15T23:07:09.558Z,1.80
2024-01-15T23:09:39.401Z,1.70
2024-01-15T23:12:08.480Z,2.53
2024-01-15T23:14:36.413Z,2.15
2024-01-15T23:17:04.311Z,1.67
2024-01-15T23:19:32.360Z,1.75
2024-01-15T23:22:00.375Z,1.27
2024-01-15T23:24:28.069Z,1.92
2024-01-15T23:26:57.373Z,2.20
2024-01-15T23:29:25.418Z,1.83
2024-01-15T23:31:53.452Z,2.13
2024-01-15T23:34:21.504Z,2.00
2024-01-15T23:36:49.246Z,2.35
2024-01-15T23:39:17.252Z,2.15
2024-01-15T23:41:45.499Z,1.30
2024-01-15T23:44:14.942Z,1.85
2024-01-15T23:46:42.937Z,1.92
2024-01-15T23:49:10.770Z,2.28
2024-01-15T23:51:38.802Z,2.42
2024-01-15T23:54:06.586Z,1.73
2024-01-15T23:56:34.376Z,1.60
2024-01-15T23:59:02.426Z,2.63
